Time;durP1;ratioP1;P1;durP2;ratioP2;P2;SDS_P1;SDS_P2;PMS_P1;PMS_P2;Temp;Humidity;BMP_temperature;BMP_pressure;BME280_temperature;BME280_humidity;BME280_pressure;Samples;Min_cycle;Max_cycle;Signal;HPM_P1;HPM_P2
2022/09/20 00:00:44;;;;;;;4.40;3.80;;;14.90;99.90;;;;;;5075463;28;20757;-68
2022/09/20 00:03:11;;;;;;;6.25;3.75;;;14.80;99.90;;;;;;5075630;28;20082;-68
2022/09/20 00:05:39;;;;;;;6.72;4.53;;;14.70;99.90;;;;;;5078019;28;20057;-68
2022/09/20 00:08:07;;;;;;;5.50;4.10;;;14.70;99.90;;;;;;5070095;28;20482;-68
2022/09/20 00:10:37;;;;;;;6.28;4.13;;;14.60;99.90;;;;;;5074303;28;20060;-68
2022/09/20 00:13:04;;;;;;;;;;;14.60;99.90;;;;;;5079011;28;20380;-68
2022/09/20 00:15:31;;;;;;;6.43;3.85;;;14.50;99.90;;;;;;5074252;28;19974;-68
2022/09/20 00:17:58;;;;;;;5.30;3.90;;;14.40;99.90;;;;;;5084371;28;20062;-68
2022/09/20 00:20:25;;;;;;;7.53;4.70;;;14.30;99.90;;;;;;5087458;28;20123;-68
2022/09/20 00:22:52;;;;;;;4.85;3.97;;;14.30;99.90;;;;;;5063885;28;20048;-68
2022/09/20 00:25:19;;;;;;;4.68;4.03;;;14.30;99.90;;;;;;5076362;28;20044;-68
2022/09/20 00:27:46;;;;;;;5.97;3.97;;;14.20;99.90;;;;;;5079157;28;20048;-69
2022/09/20 00:30:13;;;;;;;4.70;3.60;;;14.10;99.90;;;;;;5081691;28;20114;-68
2022/09/20 00:32:40;;;;;;;4.50;4.07;;;14.10;99.90;;;;;;5079228;28;20048;-68
2022/09/20 00:35:09;;;;;;;5.05;3.90;;;14.00;99.90;;;;;;5075370;28;20388;-69
2022/09/20 00:37:37;;;;;;;4.68;4.18;;;14.00;99.90;;;;;;5058362;28;20048;-68
2022/09/20 00:40:06;;;;;;;5.10;4.38;;;13.90;99.90;;;;;;5062253;28;20044;-69
2022/09/20 00:42:34;;;;;;;5.75;4.32;;;13.90;99.90;;;;;;5084482;28;20054;-68
2022/09/20 00:45:02;;;;;;;5.25;4.20;;;13.90;99.90;;;;;;5080229;28;20093;-69
2022/09/20 00:47:38;;;;;;;4.75;4.25;;;13.80;99.90;;;;;;5080005;28;20079;-68
2022/09/20 00:50:07;;;;;;;7.05;4.60;;;13.80;99.90;;;;;;5076972;28;20044;-68
2022/09/20 00:52:34;;;;;;;7.75;4.47;;;13.80;99.90;;;;;;5094854;28;20036;-68
2022/09/20 00:55:02;;;;;;;5.78;4.75;;;13.70;99.90;;;;;;5067182;28;20044;-69
2022/09/20 00:57:34;;;;;;;7.68;4.30;;;13.70;99.90;;;;;;5076109;28;20090;-68
2022/09/20 01:00:08;;;;;;;6.85;4.20;;;13.70;99.90;;;;;;5086437;28;20040;-69
2022/09/20 01:02:36;;;;;;;6.72;4.78;;;13.60;99.90;;;;;;5074163;28;20045;-68
2022/09/20 01:05:04;;;;;;;5.25;4.15;;;13.60;99.90;;;;;;5080270;28;20043;-68
2022/09/20 01:07:33;;;;;;;6.85;4.43;;;13.50;99.90;;;;;;5083387;28;20082;-68
2022/09/20 01:10:00;;;;;;;6.15;4.65;;;13.50;99.90;;;;;;5076363;28;20335;-68
2022/09/20 01:12:29;;;;;;;5.95;3.95;;;13.40;99.90;;;;;;5062111;28;20044;-68
2022/09/20 01:14:56;;;;;;;8.13;4.97;;;13.40;99.90;;;;;;5081492;28;20089;-68
2022/09/20 01:17:24;;;;;;;8.20;5.32;;;13.40;99.90;;;;;;5096657;28;20426;-69
2022/09/20 01:20:12;;;;;;;6.82;4.07;;;13.40;99.90;;;;;;5081274;28;20090;-69
2022/09/20 01:22:51;;;;;;;4.70;3.83;;;13.30;99.90;;;;;;5075428;28;20041;-68
2022/09/20 01:25:39;;;;;;;5.95;4.15;;;13.30;99.90;;;;;;5086300;28;20480;-68
2022/09/20 01:28:06;;;;;;;5.15;4.50;;;13.20;99.90;;;;;;5083725;28;20101;-68
2022/09/20 01:30:58;;;;;;;6.22;4.72;;;13.20;99.90;;;;;;5079408;28;20047;-68
2022/09/20 01:33:46;;;;;;;4.72;4.03;;;13.10;99.90;;;;;;5078786;28;20036;-68
2022/09/20 01:36:17;;;;;;;6.60;4.63;;;13.00;99.90;;;;;;5091227;28;20039;-68
2022/09/20 01:38:59;;;;;;;6.35;3.90;;;12.90;99.90;;;;;;5073977;28;20110;-68
2022/09/20 01:41:37;;;;;;;7.07;4.15;;;12.90;99.90;;;;;;5099553;28;20037;-68
2022/09/20 01:44:16;;;;;;;5.20;4.18;;;12.80;99.90;;;;;;5070682;28;20036;-68
2022/09/20 01:46:43;;;;;;;7.07;4.63;;;12.80;99.90;;;;;;5082841;28;20107;-68
2022/09/20 01:49:22;;;;;;;6.00;4.05;;;12.80;99.90;;;;;;5098046;28;20094;-69
2022/09/20 01:52:07;;;;;;;6.85;4.72;;;12.80;99.90;;;;;;5083339;28;20395;-68
2022/09/20 01:55:00;;;;;;;5.40;4.00;;;12.80;99.90;;;;;;5075667;28;20097;-68
2022/09/20 01:57:49;;;;;;;4.68;3.67;;;12.70;99.90;;;;;;5076206;28;20099;-68
2022/09/20 02:00:45;;;;;;;5.60;4.18;;;12.70;99.90;;;;;;5079067;28;20047;-68
2022/09/20 02:03:30;;;;;;;7.30;4.53;;;12.80;99.90;;;;;;5081406;28;20365;-69
2022/09/20 02:06:10;;;;;;;5.03;4.18;;;12.70;99.90;;;;;;5076635;28;20376;-68
2022/09/20 02:09:02;;;;;;;7.85;5.05;;;12.70;99.90;;;;;;5078294;28;20040;-68
2022/09/20 02:11:54;;;;;;;5.32;4.32;;;12.70;99.90;;;;;;5082076;28;20044;-68
2022/09/20 02:14:44;;;;;;;5.82;4.22;;;12.70;99.90;;;;;;5080689;28;20081;-68
2022/09/20 02:17:25;;;;;;;6.25;4.13;;;12.70;99.90;;;;;;5074767;28;20048;-68
2022/09/20 02:20:04;;;;;;;7.00;5.10;;;12.80;99.90;;;;;;5069684;28;20106;-69
2022/09/20 02:22:54;;;;;;;5.85;4.55;;;12.80;99.90;;;;;;5077911;28;20056;-68
2022/09/20 02:25:31;;;;;;;;;;;12.80;99.90;;;;;;5066580;28;20044;-68
2022/09/20 02:28:17;;;;;;;7.97;4.65;;;12.90;99.90;;;;;;5080475;28;19962;-68
2022/09/20 02:31:06;;;;;;;9.13;4.20;;;12.90;99.90;;;;;;5063435;28;20044;-68
2022/09/20 02:33:54;;;;;;;13.33;5.23;;;12.90;99.90;;;;;;5085282;28;20044;-68
2022/09/20 02:36:53;;;;;;;6.40;4.47;;;12.90;99.90;;;;;;5086034;28;20048;-68
2022/09/20 02:39:44;;;;;;;7.20;4.87;;;12.90;99.90;;;;;;5064375;28;20040;-68
2022/09/20 02:42:15;;;;;;;7.57;4.90;;;12.90;99.90;;;;;;5080031;28;20097;-68
2022/09/20 02:44:57;;;;;;;6.65;4.55;;;12.90;99.90;;;;;;5097962;28;20035;-68
2022/09/20 02:47:32;;;;;;;8.65;4.97;;;12.90;99.90;;;;;;5077972;28;20052;-68
2022/09/20 02:50:11;;;;;;;6.70;4.97;;;12.90;99.90;;;;;;5082785;28;20059;-68
2022/09/20 02:52:54;;;;;;;;;;;12.90;99.90;;;;;;5072343;28;20097;-69
2022/09/20 02:55:58;;;;;;;5.22;4.05;;;12.90;99.90;;;;;;5081762;28;19917;-68
2022/09/20 02:59:03;;;;;;;14.13;6.55;;;12.90;99.90;;;;;;5077125;28;20094;-68
2022/09/20 03:01:38;;;;;;;6.78;4.53;;;12.90;99.90;;;;;;5089743;28;20044;-68
2022/09/20 03:04:29;;;;;;;8.25;5.28;;;12.90;99.90;;;;;;5074603;28;20099;-68
2022/09/20 03:07:15;;;;;;;9.40;5.35;;;13.00;99.90;;;;;;5074631;28;20048;-68
2022/09/20 03:10:05;;;;;;;8.60;5.10;;;12.90;99.90;;;;;;5079609;28;20041;-68
2022/09/20 03:12:45;;;;;;;9.77;5.22;;;12.90;99.90;;;;;;5083584;28;20490;-68
2022/09/20 03:15:18;;;;;;;7.22;4.40;;;12.90;99.90;;;;;;5077687;28;20047;-68
2022/09/20 03:18:04;;;;;;;7.85;4.90;;;13.00;99.90;;;;;;5077924;28;20043;-68
2022/09/20 03:20:33;;;;;;;10.15;5.05;;;13.00;99.90;;;;;;5079094;28;20326;-68
2022/09/20 03:23:12;;;;;;;7.85;4.50;;;13.00;99.90;;;;;;5100862;28;20422;-68
2022/09/20 03:26:03;;;;;;;;;;;13.00;99.90;;;;;;5081211;28;20063;-68
2022/09/20 03:28:34;;;;;;;7.53;5.30;;;13.00;99.90;;;;;;5065343;28;19916;-68
2022/09/20 03:31:33;;;;;;;8.60;5.68;;;13.00;99.90;;;;;;5061143;28;20068;-68
2022/09/20 03:34:10;;;;;;;9.05;5.47;;;13.00;99.90;;;;;;5073312;28;20041;-68
2022/09/20 03:36:53;;;;;;;9.88;5.15;;;13.00;99.90;;;;;;5077704;28;20032;-68
2022/09/20 03:39:54;;;;;;;9.85;5.13;;;13.00;99.90;;;;;;5080586;28;20036;-68
2022/09/20 03:42:28;;;;;;;8.90;5.30;;;13.00;99.90;;;;;;5074860;28;20456;-68
2022/09/20 03:45:25;;;;;;;7.68;4.50;;;13.00;99.90;;;;;;5064657;28;20066;-68
2022/09/20 03:47:56;;;;;;;7.60;4.78;;;12.90;99.90;;;;;;5077338;28;20035;-68
2022/09/20 03:50:32;;;;;;;7.30;4.78;;;12.90;99.90;;;;;;5081171;28;20426;-68
2022/09/20 03:53:02;;;;;;;8.98;5.68;;;12.90;99.90;;;;;;5085243;28;20044;-68
2022/09/20 03:55:47;;;;;;;;;;;12.90;99.90;;;;;;5071689;28;20430;-68
2022/09/20 03:58:49;;;;;;;7.45;4.60;;;12.80;99.90;;;;;;5080826;28;19957;-68
2022/09/20 04:01:32;;;;;;;9.82;5.10;;;12.80;99.90;;;;;;5083490;28;20056;-68
2022/09/20 04:04:26;;;;;;;7.95;4.70;;;12.70;99.90;;;;;;5078007;28;20473;-68
2022/09/20 04:06:52;;;;;;;7.07;5.35;;;12.60;99.90;;;;;;5072504;28;20110;-68
2022/09/20 04:09:41;;;;;;;9.30;5.47;;;12.60;99.90;;;;;;5080132;28;20047;-68
2022/09/20 04:12:25;;;;;;;8.13;5.28;;;12.50;99.90;;;;;;5080294;28;20039;-68
2022/09/20 04:15:14;;;;;;;9.57;4.88;;;12.40;99.90;;;;;;5080490;28;20052;-68
2022/09/20 04:17:48;;;;;;;8.82;6.05;;;12.30;99.90;;;;;;5070973;28;20117;-68
2022/09/20 04:20:22;;;;;;;7.93;5.28;;;12.20;99.90;;;;;;5078382;28;20106;-68
2022/09/20 04:22:50;;;;;;;7.07;5.40;;;12.10;99.90;;;;;;5065465;28;20047;-68
2022/09/20 04:25:27;;;;;;;7.20;5.20;;;12.00;99.90;;;;;;5052328;28;20067;-68
2022/09/20 04:27:58;;;;;;;10.32;5.65;;;12.00;99.90;;;;;;5086045;28;20040;-68
2022/09/20 04:30:29;;;;;;;7.30;4.70;;;11.90;99.90;;;;;;5082962;28;20060;-68
2022/09/20 04:33:45;;;;;;;7.32;5.72;;;11.90;99.90;;;;;;5078674;28;20032;-68
2022/09/20 04:36:28;;;;;;;5.70;4.90;;;11.80;99.90;;;;;;5046569;28;20091;-68
2022/09/20 04:39:17;;;;;;;6.28;5.28;;;11.70;99.90;;;;;;5013862;28;20041;-68
2022/09/20 04:42:08;;;;;;;8.07;4.97;;;11.60;99.90;;;;;;5046129;28;20078;-68
2022/09/20 04:44:48;;;;;;;6.53;5.07;;;11.50;99.90;;;;;;5083944;28;20369;-68
2022/09/20 04:47:27;;;;;;;7.28;5.85;;;11.40;99.90;;;;;;5083650;28;20081;-68
2022/09/20 04:50:13;;;;;;;6.77;5.47;;;11.40;99.90;;;;;;5075051;28;20040;-68
2022/09/20 04:52:54;;;;;;;6.65;5.35;;;11.30;99.90;;;;;;5081064;28;20284;-68
2022/09/20 04:55:47;;;;;;;7.45;5.07;;;11.30;99.90;;;;;;5082244;28;20048;-68
2022/09/20 04:58:20;;;;;;;8.23;5.93;;;11.20;99.90;;;;;;5065037;28;20044;-68
2022/09/20 05:01:05;;;;;;;7.90;5.13;;;11.20;99.90;;;;;;5085717;28;20478;-68
2022/09/20 05:04:00;;;;;;;5.97;4.50;;;11.10;99.90;;;;;;5078209;28;20448;-68
2022/09/20 05:06:42;;;;;;;8.52;4.95;;;11.10;99.90;;;;;;5086132;28;20052;-68
2022/09/20 05:09:17;;;;;;;8.75;5.22;;;11.00;99.90;;;;;;5079998;28;20429;-68
2022/09/20 05:11:56;;;;;;;7.75;5.47;;;10.90;99.90;;;;;;5083559;28;20072;-68
2022/09/20 05:14:39;;;;;;;11.13;6.00;;;10.90;99.90;;;;;;5082983;28;20076;-68
2022/09/20 05:17:34;;;;;;;7.28;5.32;;;10.90;99.90;;;;;;5078908;28;20094;-68
2022/09/20 05:20:39;;;;;;;7.32;5.30;;;10.80;99.90;;;;;;5077083;28;20117;-68
2022/09/20 05:23:16;;;;;;;7.15;5.32;;;10.70;99.90;;;;;;5043921;28;20051;-68
2022/09/20 05:26:12;;;;;;;9.18;5.40;;;10.70;99.90;;;;;;5070692;28;20454;-68
2022/09/20 05:28:45;;;;;;;7.93;4.97;;;10.70;99.90;;;;;;5081361;28;20094;-68
2022/09/20 05:31:18;;;;;;;9.65;5.65;;;10.70;99.90;;;;;;5058868;28;20044;-68
2022/09/20 05:34:22;;;;;;;9.10;5.70;;;10.60;99.90;;;;;;5074469;28;20044;-68
2022/09/20 05:37:08;;;;;;;10.18;6.00;;;10.60;99.90;;;;;;5084169;28;20044;-68
2022/09/20 05:39:37;;;;;;;10.77;6.55;;;10.50;99.90;;;;;;5080750;28;20082;-68
2022/09/20 05:42:11;;;;;;;7.88;5.55;;;10.50;99.90;;;;;;5079399;28;20093;-68
2022/09/20 05:45:16;;;;;;;8.98;6.43;;;10.40;99.90;;;;;;5087137;28;20102;-68
2022/09/20 05:47:58;;;;;;;8.88;5.78;;;10.40;99.90;;;;;;5090659;28;20037;-68
2022/09/20 05:51:03;;;;;;;10.38;6.40;;;10.40;99.90;;;;;;5075137;28;20051;-68
2022/09/20 05:53:51;;;;;;;13.88;7.80;;;10.40;99.90;;;;;;5084435;28;20048;-69
2022/09/20 05:56:46;;;;;;;12.35;8.10;;;10.40;99.90;;;;;;5083635;28;20086;-68
2022/09/20 05:59:29;;;;;;;11.57;6.55;;;10.40;99.90;;;;;;5040252;28;20117;-68
2022/09/20 06:02:31;;;;;;;14.52;6.75;;;10.40;99.90;;;;;;5080832;28;20039;-68
2022/09/20 06:05:14;;;;;;;9.05;6.18;;;10.40;99.90;;;;;;5074300;28;20072;-68
2022/09/20 06:08:03;;;;;;;8.30;5.93;;;10.40;99.90;;;;;;5082401;28;20105;-68
2022/09/20 06:11:11;;;;;;;8.80;5.75;;;10.40;99.90;;;;;;5086519;28;20044;-69
2022/09/20 06:13:59;;;;;;;438.88;347.33;;;10.40;99.90;;;;;;5074937;28;20032;-65
2022/09/20 06:16:40;;;;;;;60.20;44.63;;;10.40;99.90;;;;;;5098866;28;20051;-66
2022/09/20 06:19:33;;;;;;;41.35;31.75;;;10.50;99.90;;;;;;5095351;28;20041;-66
2022/09/20 06:22:16;;;;;;;18.92;15.77;;;10.50;99.90;;;;;;5057518;28;20122;-66
2022/09/20 06:25:00;;;;;;;16.92;12.93;;;10.50;99.90;;;;;;5087809;28;20040;-67
2022/09/20 06:27:30;;;;;;;16.10;9.25;;;10.50;99.90;;;;;;5069513;28;20197;-67
2022/09/20 06:29:59;;;;;;;12.55;7.85;;;10.50;99.90;;;;;;5082315;28;20358;-67
2022/09/20 06:32:26;;;;;;;12.90;8.93;;;10.50;99.90;;;;;;5064091;28;20048;-66
2022/09/20 06:34:53;;;;;;;59.10;40.42;;;10.50;99.90;;;;;;5081371;28;20041;-68
2022/09/20 06:43:18;;;;;;;37.60;25.83;;;10.60;99.90;;;;;;5076150;28;20045;-68
2022/09/20 06:45:45;;;;;;;21.95;15.25;;;10.70;99.90;;;;;;5089149;28;20296;-67
2022/09/20 06:48:14;;;;;;;18.48;9.10;;;10.70;99.90;;;;;;5077373;28;20043;-67
2022/09/20 06:50:44;;;;;;;11.57;8.30;;;10.80;99.90;;;;;;5077924;28;20760;-67
2022/09/20 06:53:15;;;;;;;11.02;7.30;;;10.90;99.90;;;;;;5075416;28;20044;-68
2022/09/20 06:55:43;;;;;;;10.32;7.60;;;10.90;99.90;;;;;;5099351;28;20040;-68
2022/09/20 06:58:10;;;;;;;10.55;7.25;;;11.00;99.90;;;;;;5088920;28;20498;-65
2022/09/20 07:00:38;;;;;;;10.02;7.38;;;11.00;99.90;;;;;;5075658;28;20055;-65
2022/09/20 07:03:05;;;;;;;12.98;8.00;;;11.00;99.90;;;;;;5076778;28;20067;-66
2022/09/20 07:05:32;;;;;;;9.63;8.10;;;11.10;99.90;;;;;;5084011;28;20434;-69
2022/09/20 07:08:00;;;;;;;11.93;8.93;;;11.10;99.90;;;;;;5079337;28;20089;-66
2022/09/20 07:10:27;;;;;;;11.07;7.95;;;11.20;99.90;;;;;;5082988;28;20040;-66
2022/09/20 07:12:58;;;;;;;12.40;7.80;;;11.20;99.90;;;;;;5080776;28;20032;-67
2022/09/20 07:15:28;;;;;;;13.20;8.30;;;11.30;99.90;;;;;;5081642;28;20480;-66
2022/09/20 07:17:55;;;;;;;15.68;8.10;;;11.40;99.90;;;;;;5081533;28;20048;-67
2022/09/20 07:20:22;;;;;;;11.07;7.90;;;11.40;99.90;;;;;;5076174;28;20040;-67
2022/09/20 07:22:49;;;;;;;10.68;8.82;;;11.50;99.90;;;;;;5065107;28;20040;-68
2022/09/20 07:25:17;;;;;;;10.95;7.75;;;11.50;99.90;;;;;;5081156;28;20050;-66
2022/09/20 07:27:45;;;;;;;11.10;8.30;;;11.60;99.90;;;;;;5071301;28;20106;-66
2022/09/20 07:30:13;;;;;;;12.45;7.22;;;11.70;99.90;;;;;;5087023;28;20053;-67
2022/09/20 07:32:40;;;;;;;15.90;8.30;;;11.80;99.90;;;;;;5080916;28;20047;-67
2022/09/20 07:35:08;;;;;;;23.15;15.45;;;11.90;99.90;;;;;;5064040;28;20480;-66
2022/09/20 07:37:35;;;;;;;11.13;8.38;;;12.00;99.90;;;;;;5064512;28;20071;-65
2022/09/20 07:40:04;;;;;;;10.05;8.98;;;12.00;99.90;;;;;;5078194;28;20040;-66
2022/09/20 07:42:31;;;;;;;11.35;7.88;;;12.20;99.90;;;;;;5087129;28;20067;-66
2022/09/20 07:44:58;;;;;;;39.55;29.45;;;12.30;99.90;;;;;;5092830;28;20036;-65
2022/09/20 07:47:25;;;;;;;33.03;23.25;;;12.30;99.90;;;;;;5080453;28;20184;-65
2022/09/20 07:49:52;;;;;;;13.15;8.10;;;12.40;99.90;;;;;;5082627;28;20472;-66
2022/09/20 07:52:19;;;;;;;13.20;8.63;;;12.60;99.90;;;;;;5075178;28;20418;-65
2022/09/20 07:54:46;;;;;;;9.82;7.95;;;12.60;99.90;;;;;;5078915;28;20048;-66
2022/09/20 07:57:12;;;;;;;12.80;8.13;;;12.70;99.90;;;;;;5081764;28;20044;-66
2022/09/20 07:59:39;;;;;;;9.23;8.15;;;12.80;99.90;;;;;;5080861;28;20040;-65
2022/09/20 08:02:07;;;;;;;9.65;7.78;;;12.90;99.90;;;;;;5076878;28;20094;-64
2022/09/20 08:04:34;;;;;;;15.90;8.95;;;13.00;99.90;;;;;;5070751;28;20132;-66
2022/09/20 08:07:01;;;;;;;10.65;8.25;;;13.20;99.90;;;;;;5086454;28;20040;-68
2022/09/20 08:09:28;;;;;;;9.00;6.93;;;13.30;99.90;;;;;;5071996;28;20048;-66
2022/09/20 08:11:56;;;;;;;86.95;65.40;;;13.40;99.90;;;;;;5089359;28;20044;-67
2022/09/20 08:14:24;;;;;;;16.60;11.85;;;13.50;99.90;;;;;;5077342;28;20088;-67
2022/09/20 08:16:51;;;;;;;13.57;9.63;;;13.50;99.90;;;;;;5082013;28;20035;-67
2022/09/20 08:19:21;;;;;;;12.90;9.25;;;13.70;99.90;;;;;;5078255;28;20042;-67
2022/09/20 08:21:49;;;;;;;13.05;8.23;;;13.70;99.90;;;;;;5073079;28;20048;-67
2022/09/20 08:24:16;;;;;;;10.70;7.28;;;13.90;99.90;;;;;;5095572;28;20101;-66
2022/09/20 08:26:43;;;;;;;11.45;7.68;;;14.00;99.90;;;;;;5071432;28;20044;-71
2022/09/20 08:29:10;;;;;;;11.43;7.95;;;14.20;99.90;;;;;;5093978;28;20063;-69
2022/09/20 08:31:39;;;;;;;33.38;23.98;;;14.30;99.90;;;;;;5074559;28;20050;-68
2022/09/20 08:34:07;;;;;;;13.05;10.18;;;14.40;99.90;;;;;;5072688;28;20037;-67
2022/09/20 08:36:37;;;;;;;11.55;7.30;;;14.50;99.90;;;;;;5064289;28;20522;-67
2022/09/20 08:39:04;;;;;;;14.65;7.30;;;14.60;99.90;;;;;;5068278;28;20117;-68
2022/09/20 08:42:30;;;;;;;8.95;6.45;;;14.70;99.90;;;;;;5075224;28;20399;-68
2022/09/20 08:45:21;;;;;;;8.23;5.07;;;14.90;99.90;;;;;;5079599;28;20054;-69
2022/09/20 08:48:01;;;;;;;10.07;6.07;;;14.90;99.90;;;;;;5070499;28;20121;-67
2022/09/20 08:50:27;;;;;;;10.75;6.10;;;15.00;99.90;;;;;;5080159;28;20048;-67
2022/09/20 08:52:56;;;;;;;9.25;5.10;;;15.10;99.90;;;;;;5073628;28;20044;-68
2022/09/20 08:55:31;;;;;;;9.02;5.50;;;15.20;99.90;;;;;;5069791;28;20040;-68
2022/09/20 08:58:07;;;;;;;9.07;5.18;;;15.40;99.90;;;;;;5098168;28;20037;-68
2022/09/20 09:00:35;;;;;;;;;;;15.40;99.90;;;;;;5092569;28;20471;-68
2022/09/20 09:03:06;;;;;;;8.00;4.50;;;15.50;99.90;;;;;;5081542;28;19950;-67
2022/09/20 09:05:52;;;;;;;5.60;4.13;;;15.60;99.90;;;;;;5082722;28;20850;-65
2022/09/20 09:08:35;;;;;;;5.38;3.97;;;15.70;99.90;;;;;;5077449;28;20098;-66
2022/09/20 09:11:08;;;;;;;5.10;3.50;;;15.80;99.90;;;;;;5091706;28;20115;-65
2022/09/20 09:13:38;;;;;;;6.72;3.83;;;15.90;99.90;;;;;;5096917;28;20048;-67
2022/09/20 09:16:08;;;;;;;4.07;3.40;;;16.00;99.90;;;;;;5083544;28;20097;-67
2022/09/20 09:18:38;;;;;;;4.82;3.10;;;16.00;99.90;;;;;;5100912;28;20043;-68
2022/09/20 09:21:06;;;;;;;5.68;3.28;;;15.90;99.90;;;;;;5069403;28;20044;-67
2022/09/20 09:23:41;;;;;;;3.60;2.40;;;16.00;99.90;;;;;;5087769;28;20510;-71
2022/09/20 09:26:21;;;;;;;3.88;2.17;;;16.00;99.90;;;;;;5103611;28;20079;-69
2022/09/20 09:29:13;;;;;;;3.53;1.70;;;16.00;99.90;;;;;;5088970;28;20097;-69
2022/09/20 09:31:40;;;;;;;3.10;1.85;;;16.00;99.90;;;;;;5081261;28;20098;-64
2022/09/20 09:34:37;;;;;;;3.38;1.63;;;16.00;99.90;;;;;;5091320;28;20040;-65
2022/09/20 09:37:04;;;;;;;3.45;1.85;;;16.00;99.90;;;;;;5064131;28;20162;-65
2022/09/20 09:39:36;;;;;;;2.35;1.67;;;16.00;99.90;;;;;;5080738;28;20056;-66
2022/09/20 09:42:25;;;;;;;4.40;1.50;;;16.00;99.90;;;;;;5078550;28;20051;-67
2022/09/20 09:44:52;;;;;;;2.17;1.52;;;16.00;99.90;;;;;;5077719;28;20048;-68
2022/09/20 09:47:28;;;;;;;2.25;1.33;;;16.20;99.90;;;;;;5076751;28;20514;-69
2022/09/20 09:49:56;;;;;;;2.95;1.50;;;16.30;99.90;;;;;;5080346;28;20036;-67
2022/09/20 09:52:32;;;;;;;3.92;2.00;;;16.40;99.90;;;;;;5074212;28;20497;-70
2022/09/20 09:54:59;;;;;;;3.28;2.20;;;16.40;99.90;;;;;;5058706;28;20074;-67
2022/09/20 09:58:15;;;;;;;3.35;2.05;;;16.60;99.90;;;;;;5087649;28;20036;-66
2022/09/20 10:00:45;;;;;;;2.95;1.80;;;16.70;99.90;;;;;;5067256;28;20044;-66
2022/09/20 10:03:18;;;;;;;2.53;1.63;;;16.80;99.90;;;;;;5080613;28;20048;-67
2022/09/20 10:06:00;;;;;;;3.70;1.60;;;16.90;99.90;;;;;;5075000;28;20047;-63
2022/09/20 10:08:37;;;;;;;8.82;2.10;;;17.00;99.90;;;;;;5081236;28;20964;-66
2022/09/20 10:11:11;;;;;;;3.20;1.77;;;17.10;99.90;;;;;;5077850;28;20090;-66
2022/09/20 10:13:43;;;;;;;3.58;2.25;;;17.10;99.90;;;;;;5078624;28;20035;-65
2022/09/20 10:16:13;;;;;;;4.97;2.05;;;17.00;99.90;;;;;;5092568;28;20036;-69
2022/09/20 10:18:54;;;;;;;3.72;1.75;;;17.10;99.90;;;;;;5075958;28;20039;-68
2022/09/20 10:21:42;;;;;;;3.45;2.35;;;17.20;99.90;;;;;;5076902;28;20040;-68
2022/09/20 10:24:31;;;;;;;2.78;1.65;;;17.20;99.90;;;;;;5081663;28;20040;-69
2022/09/20 10:27:28;;;;;;;2.28;1.58;;;17.30;99.90;;;;;;5075136;28;20040;-68
2022/09/20 10:30:09;;;;;;;2.03;1.50;;;17.50;99.90;;;;;;5075891;28;20081;-69
2022/09/20 10:32:55;;;;;;;2.53;1.42;;;17.70;99.90;;;;;;5093658;28;20040;-67
2022/09/20 10:35:41;;;;;;;1.85;1.15;;;17.90;99.90;;;;;;5090628;28;20557;-67
2022/09/20 10:38:11;;;;;;;1.77;0.90;;;18.10;99.90;;;;;;5086241;28;20494;-66
2022/09/20 10:44:11;;;;;;;3.60;1.42;;;18.10;99.90;;;;;;5068815;28;20047;-65
2022/09/20 10:46:38;;;;;;;2.00;1.15;;;18.00;99.90;;;;;;5092713;28;20124;-66
2022/09/20 10:49:23;;;;;;;2.10;1.27;;;18.10;99.90;;;;;;5078882;28;20051;-65
2022/09/20 10:51:59;;;;;;;3.03;2.08;;;17.90;99.90;;;;;;5077275;28;20049;-65
2022/09/20 10:55:14;;;;;;;4.30;3.20;;;18.00;99.90;;;;;;5079061;28;20043;-65
2022/09/20 10:58:02;;;;;;;2.72;1.75;;;17.90;99.90;;;;;;5026922;28;20049;-68
2022/09/20 11:00:43;;;;;;;2.42;1.30;;;17.80;99.90;;;;;;5082020;28;20041;-67
2022/09/20 11:03:35;;;;;;;3.28;1.25;;;17.90;99.90;;;;;;5093196;28;20070;-66
2022/09/20 11:06:23;;;;;;;1.65;1.17;;;18.10;99.90;;;;;;5072744;28;20443;-67
2022/09/20 11:08:54;;;;;;;4.95;1.20;;;18.10;99.90;;;;;;5086197;28;20093;-65
2022/09/20 11:11:42;;;;;;;5.82;1.33;;;18.10;99.90;;;;;;5062717;28;20044;-66
2022/09/20 11:14:14;;;;;;;2.23;1.30;;;18.20;99.90;;;;;;5084873;28;20044;-64
2022/09/20 11:16:42;;;;;;;2.15;1.35;;;18.30;99.90;;;;;;5079319;28;20049;-65
2022/09/20 11:19:34;;;;;;;3.25;1.67;;;18.30;99.90;;;;;;5084971;28;20111;-67
2022/09/20 11:22:12;;;;;;;2.03;1.10;;;18.30;99.90;;;;;;5080073;28;20045;-66
2022/09/20 11:24:47;;;;;;;3.20;1.33;;;18.30;99.90;;;;;;5080463;28;20036;-65
2022/09/20 11:27:25;;;;;;;1.42;1.02;;;18.30;99.90;;;;;;5078619;28;20087;-67
2022/09/20 11:29:59;;;;;;;2.22;1.30;;;18.50;99.90;;;;;;5080860;28;20051;-69
2022/09/20 11:32:35;;;;;;;1.88;1.17;;;18.60;99.90;;;;;;5078317;28;20036;-68
2022/09/20 11:35:09;;;;;;;2.70;1.38;;;18.60;99.90;;;;;;5056338;28;20059;-69
2022/09/20 11:38:00;;;;;;;7.32;1.88;;;18.70;99.90;;;;;;5078584;28;20055;-70
2022/09/20 11:40:36;;;;;;;2.83;0.90;;;18.80;99.90;;;;;;5074167;28;20476;-75
2022/09/20 11:43:05;;;;;;;4.50;1.20;;;18.90;99.90;;;;;;5078146;28;20032;-68
2022/09/20 11:45:32;;;;;;;1.85;1.23;;;18.90;99.90;;;;;;5079282;28;20059;-64
2022/09/20 11:48:03;;;;;;;5.22;4.15;;;18.90;99.90;;;;;;5076821;28;20101;-66
2022/09/20 11:50:45;;;;;;;3.05;1.75;;;19.00;99.90;;;;;;5077215;28;20123;-70
2022/09/20 11:53:35;;;;;;;7.40;2.17;;;19.00;98.60;;;;;;5080284;28;20093;-63
2022/09/20 11:56:11;;;;;;;2.90;1.50;;;18.90;99.00;;;;;;5076466;28;20481;-68
2022/09/20 11:58:52;;;;;;;2.72;1.70;;;19.00;99.90;;;;;;5081040;28;20032;-64
2022/09/20 12:01:36;;;;;;;2.22;1.30;;;19.00;98.90;;;;;;5077085;28;20040;-67
2022/09/20 12:04:30;;;;;;;4.65;1.77;;;19.00;98.50;;;;;;5074010;28;20082;-64
2022/09/20 12:07:28;;;;;;;5.35;2.25;;;18.90;98.70;;;;;;5081470;28;20117;-66
2022/09/20 12:10:00;;;;;;;2.30;1.60;;;18.80;98.90;;;;;;5079809;28;20114;-67
2022/09/20 12:12:30;;;;;;;1.90;1.20;;;18.90;98.70;;;;;;5095139;28;20040;-72
2022/09/20 12:14:58;;;;;;;4.60;1.73;;;18.80;99.70;;;;;;5075752;28;20052;-68
2022/09/20 12:17:48;;;;;;;2.37;1.47;;;19.00;98.80;;;;;;5092950;28;20043;-66
2022/09/20 12:20:33;;;;;;;4.45;1.40;;;19.10;98.90;;;;;;5077323;28;20047;-66
2022/09/20 12:23:44;;;;;;;2.97;1.40;;;19.20;97.70;;;;;;5082718;28;20047;-67
2022/09/20 12:26:20;;;;;;;8.80;2.10;;;19.20;98.00;;;;;;5075672;28;20044;-66
2022/09/20 12:28:48;;;;;;;2.53;1.60;;;19.30;97.20;;;;;;5075294;28;20433;-66
2022/09/20 12:33:59;;;;;;;2.15;1.20;;;19.50;97.50;;;;;;5077769;28;20273;-65
2022/09/20 12:36:34;;;;;;;3.35;1.70;;;19.60;97.40;;;;;;5083113;28;20075;-69
2022/09/20 12:39:01;;;;;;;2.58;1.63;;;19.80;98.20;;;;;;5079079;28;20123;-69
2022/09/20 12:41:53;;;;;;;4.25;1.40;;;19.90;98.40;;;;;;5076300;28;20052;-70
2022/09/20 12:44:38;;;;;;;3.08;1.35;;;20.10;98.50;;;;;;5083447;28;20090;-69
2022/09/20 12:47:07;;;;;;;1.90;1.20;;;20.00;97.00;;;;;;5075653;28;20084;-70
2022/09/20 12:55:32;;;;;;;3.28;1.20;;;20.00;95.10;;;;;;5081324;28;20035;-68
2022/09/20 12:58:14;;;;;;;3.55;1.50;;;19.80;94.20;;;;;;5077609;28;20343;-68
2022/09/20 13:00:49;;;;;;;1.95;1.30;;;19.80;95.20;;;;;;5083705;28;20052;-67
2022/09/20 13:03:39;;;;;;;2.88;1.50;;;19.80;95.60;;;;;;5080751;28;20036;-67
2022/09/20 13:06:05;;;;;;;3.60;1.40;;;20.00;94.30;;;;;;5085984;28;20051;-68
2022/09/20 13:08:47;;;;;;;2.35;1.60;;;20.10;95.40;;;;;;5084353;28;20041;-68
2022/09/20 13:11:22;;;;;;;3.58;1.40;;;20.10;93.90;;;;;;5049282;28;20090;-67
2022/09/20 13:14:05;;;;;;;2.47;1.25;;;19.90;93.60;;;;;;5080683;28;20048;-68
2022/09/20 13:16:35;;;;;;;2.35;1.40;;;19.90;94.20;;;;;;5080801;28;20040;-68
2022/09/20 13:19:09;;;;;;;4.18;1.95;;;19.90;94.20;;;;;;5084282;28;20051;-71
2022/09/20 13:21:39;;;;;;;3.22;1.42;;;19.90;93.90;;;;;;5096816;28;20533;-68
2022/09/20 13:24:07;;;;;;;2.35;1.40;;;20.00;94.80;;;;;;5083952;28;20044;-67
2022/09/20 13:26:44;;;;;;;3.10;1.40;;;20.10;94.70;;;;;;5063953;28;20044;-68
2022/09/20 13:29:34;;;;;;;4.10;1.63;;;20.10;93.80;;;;;;5063760;28;20430;-67
2022/09/20 13:32:23;;;;;;;3.10;1.42;;;20.10;93.20;;;;;;5081965;28;20071;-67
2022/09/20 13:35:08;;;;;;;8.38;2.35;;;20.20;94.60;;;;;;5085344;28;20091;-69
2022/09/20 13:37:37;;;;;;;4.07;1.52;;;20.20;93.80;;;;;;5079594;28;20033;-67
2022/09/20 13:40:05;;;;;;;4.03;1.60;;;20.20;94.50;;;;;;5069768;28;20043;-68
2022/09/20 13:42:34;;;;;;;3.65;1.88;;;20.40;94.30;;;;;;5061455;28;20047;-66
2022/09/20 13:45:02;;;;;;;3.28;2.33;;;20.50;94.80;;;;;;5068490;28;20469;-67
2022/09/20 13:47:30;;;;;;;3.90;3.08;;;20.50;94.50;;;;;;5071768;28;20101;-66
2022/09/20 13:50:01;;;;;;;5.13;1.92;;;20.50;93.50;;;;;;5078296;28;20086;-65
2022/09/20 13:52:29;;;;;;;4.32;2.10;;;20.30;93.90;;;;;;5091613;28;20063;-65
2022/09/20 13:54:56;;;;;;;5.80;2.50;;;20.20;93.90;;;;;;5083836;28;20044;-67
2022/09/20 13:57:27;;;;;;;3.25;2.05;;;20.10;94.10;;;;;;5092828;28;21482;-65